Time;durP1;ratioP1;P1;durP2;ratioP2;P2;SDS_P1;SDS_P2;PMS_P1;PMS_P2;Temp;Humidity;BMP_temperature;BMP_pressure;BME280_temperature;BME280_humidity;BME280_pressure;Samples;Min_cycle;Max_cycle;Signal;HPM_P1;HPM_P2
2021/07/31 00:01:14;;;;;;;8.70;7.88;;;16.40;99.90;;;;;;5026727;28;20486;-77
2021/07/31 00:03:43;;;;;;;9.07;7.53;;;16.40;99.90;;;;;;5012594;28;20042;-75
2021/07/31 00:06:10;;;;;;;9.02;7.97;;;16.30;99.90;;;;;;5021228;28;20041;-76
2021/07/31 00:08:37;;;;;;;9.82;8.77;;;16.30;99.90;;;;;;5030294;28;20041;-74
2021/07/31 00:11:05;;;;;;;33.13;21.63;;;16.20;99.90;;;;;;5032351;28;20041;-75
2021/07/31 00:13:32;;;;;;;13.93;12.00;;;16.20;99.90;;;;;;5032361;28;20099;-74
2021/07/31 00:15:58;;;;;;;12.13;11.10;;;16.20;99.90;;;;;;5032300;28;20041;-75
2021/07/31 00:18:25;;;;;;;30.50;22.13;;;16.20;99.90;;;;;;5031915;28;20134;-75
2021/07/31 00:20:51;;;;;;;25.70;18.02;;;16.20;99.90;;;;;;5032010;28;20042;-74
2021/07/31 00:23:18;;;;;;;11.40;9.13;;;16.30;99.90;;;;;;5032335;28;20045;-75
2021/07/31 00:25:45;;;;;;;20.52;14.82;;;16.50;99.90;;;;;;5032419;28;20049;-75
2021/07/31 00:28:13;;;;;;;8.23;7.43;;;16.60;99.90;;;;;;5016602;28;20049;-76
2021/07/31 00:30:39;;;;;;;25.25;14.80;;;16.60;99.90;;;;;;5012102;28;20042;-76
2021/07/31 00:33:06;;;;;;;10.70;9.20;;;16.70;99.90;;;;;;5012335;28;20116;-76
2021/07/31 00:35:33;;;;;;;8.77;7.80;;;16.80;99.90;;;;;;5012258;28;20050;-75
2021/07/31 00:37:59;;;;;;;20.90;13.68;;;16.80;99.90;;;;;;5012607;28;20046;-77
2021/07/31 00:40:26;;;;;;;46.08;26.75;;;16.80;99.90;;;;;;5013305;28;20530;-75
2021/07/31 00:42:53;;;;;;;13.25;7.90;;;16.80;99.90;;;;;;5013022;28;20054;-75
2021/07/31 00:45:21;;;;;;;22.65;15.13;;;16.80;99.90;;;;;;5025274;28;20057;-75
2021/07/31 00:47:48;;;;;;;6.93;6.30;;;16.80;99.90;;;;;;5031792;28;20046;-75
2021/07/31 00:50:15;;;;;;;13.13;8.85;;;16.90;99.90;;;;;;5031507;28;20383;-76
2021/07/31 00:52:43;;;;;;;24.25;16.88;;;16.80;99.90;;;;;;5032543;28;20041;-76
2021/07/31 00:55:12;;;;;;;8.32;6.32;;;16.80;99.90;;;;;;5020177;28;20049;-75
2021/07/31 00:57:40;;;;;;;8.98;7.90;;;16.90;99.90;;;;;;5013298;28;20037;-77
2021/07/31 01:00:08;;;;;;;19.55;13.88;;;16.80;99.90;;;;;;5011582;28;20078;-76
2021/07/31 01:02:36;;;;;;;8.60;6.85;;;16.70;99.90;;;;;;5030658;28;20111;-76
2021/07/31 01:05:04;;;;;;;18.08;13.02;;;16.70;99.90;;;;;;5018810;28;20045;-77
2021/07/31 01:07:30;;;;;;;17.20;11.00;;;16.70;99.90;;;;;;5017078;28;20406;-75
2021/07/31 01:09:57;;;;;;;9.82;6.57;;;16.70;99.90;;;;;;5012308;28;20049;-77
2021/07/31 01:12:24;;;;;;;15.48;10.55;;;16.70;99.90;;;;;;5012254;28;20046;-78
2021/07/31 01:14:50;;;;;;;33.25;23.90;;;16.70;99.90;;;;;;5011832;28;20060;-77
2021/07/31 01:17:17;;;;;;;9.38;7.65;;;16.60;99.90;;;;;;5011882;28;20045;-76
2021/07/31 01:19:45;;;;;;;8.02;6.47;;;16.60;99.90;;;;;;5011569;28;20104;-77
2021/07/31 01:22:13;;;;;;;8.60;7.43;;;16.60;99.90;;;;;;5014010;28;20101;-77
2021/07/31 01:24:40;;;;;;;9.50;6.57;;;16.60;99.90;;;;;;5012489;28;20050;-76
2021/07/31 01:27:06;;;;;;;15.73;11.50;;;16.50;99.90;;;;;;5011751;28;20046;-75
2021/07/31 01:29:33;;;;;;;28.92;19.00;;;16.40;99.90;;;;;;5014826;28;20090;-77
2021/07/31 01:32:00;;;;;;;10.07;8.38;;;16.30;99.90;;;;;;5031495;28;20076;-76
2021/07/31 01:34:27;;;;;;;9.80;7.75;;;16.20;99.90;;;;;;5031309;28;20103;-76
2021/07/31 01:36:53;;;;;;;9.02;8.10;;;16.20;99.90;;;;;;5030758;28;20037;-78
2021/07/31 01:39:21;;;;;;;8.18;6.70;;;16.30;99.90;;;;;;5011549;28;20104;-78
2021/07/31 01:41:49;;;;;;;7.43;6.68;;;16.40;99.90;;;;;;5011537;28;20268;-77
2021/07/31 01:44:15;;;;;;;10.77;7.28;;;16.30;99.90;;;;;;5015010;28;20095;-76
2021/07/31 01:46:42;;;;;;;7.90;7.07;;;16.30;99.90;;;;;;5018778;28;20054;-77
2021/07/31 01:49:09;;;;;;;7.43;6.75;;;16.40;99.90;;;;;;5012701;28;20116;-76
2021/07/31 01:51:36;;;;;;;7.82;6.70;;;16.30;99.90;;;;;;5030241;28;20460;-77
2021/07/31 01:54:02;;;;;;;7.30;6.68;;;16.40;99.90;;;;;;5025863;28;20049;-76
2021/07/31 01:56:30;;;;;;;7.88;6.80;;;16.40;99.90;;;;;;5021773;28;20413;-77
2021/07/31 01:58:57;;;;;;;8.02;6.80;;;16.40;99.90;;;;;;5018521;28;20041;-76
2021/07/31 02:01:25;;;;;;;8.05;7.20;;;16.30;99.90;;;;;;5032953;28;20045;-76
2021/07/31 02:03:51;;;;;;;7.68;7.00;;;16.30;99.90;;;;;;5032750;28;20103;-76
2021/07/31 02:06:18;;;;;;;7.18;6.57;;;16.30;99.90;;;;;;5025706;28;20127;-77
2021/07/31 02:08:44;;;;;;;9.43;7.03;;;16.30;99.90;;;;;;5014346;28;20050;-75
2021/07/31 02:11:12;;;;;;;8.40;6.93;;;16.40;99.90;;;;;;5014791;28;20453;-75
2021/07/31 02:13:40;;;;;;;7.60;6.80;;;16.50;99.90;;;;;;5015278;28;20046;-75
2021/07/31 02:16:06;;;;;;;8.70;6.57;;;16.50;99.90;;;;;;5014963;28;20084;-76
2021/07/31 02:18:33;;;;;;;6.80;6.18;;;16.60;99.90;;;;;;5015603;28;20050;-76
2021/07/31 02:21:00;;;;;;;6.90;6.30;;;16.60;99.90;;;;;;5014923;28;20042;-76
2021/07/31 02:23:37;;;;;;;6.78;6.18;;;16.70;99.90;;;;;;5014984;28;20104;-77
2021/07/31 02:26:03;;;;;;;8.23;6.68;;;16.90;99.90;;;;;;5014530;28;20072;-76
2021/07/31 02:28:30;;;;;;;6.55;6.03;;;16.90;99.90;;;;;;5014177;28;20111;-77
2021/07/31 02:31:00;;;;;;;8.05;6.00;;;17.00;99.90;;;;;;5027951;28;20041;-76
2021/07/31 02:33:27;;;;;;;6.68;5.95;;;17.00;99.90;;;;;;5026708;28;20044;-77
2021/07/31 02:35:53;;;;;;;6.22;5.63;;;17.20;99.90;;;;;;5034467;28;20103;-76
2021/07/31 02:38:20;;;;;;;9.88;5.80;;;17.40;99.90;;;;;;5021894;28;20548;-76
2021/07/31 02:40:47;;;;;;;6.50;5.40;;;17.60;99.90;;;;;;5015112;28;20042;-78
2021/07/31 02:43:13;;;;;;;5.40;4.72;;;17.60;99.90;;;;;;5014349;28;20046;-76
2021/07/31 02:45:40;;;;;;;6.85;5.00;;;17.90;99.90;;;;;;5024709;28;20045;-77
2021/07/31 02:48:08;;;;;;;4.50;4.10;;;17.90;99.90;;;;;;5034184;28;20054;-77
2021/07/31 02:50:34;;;;;;;4.57;4.18;;;18.00;99.90;;;;;;5033938;28;20049;-77
2021/07/31 02:53:01;;;;;;;6.25;4.65;;;18.20;99.90;;;;;;5033411;28;20050;-76
2021/07/31 02:55:31;;;;;;;5.80;5.00;;;18.20;99.90;;;;;;5033842;28;20049;-78
2021/07/31 02:58:01;;;;;;;6.07;4.63;;;18.20;99.90;;;;;;5020341;28;20057;-76
2021/07/31 03:00:31;;;;;;;5.47;4.30;;;18.30;99.90;;;;;;5015074;28;20046;-77
2021/07/31 03:03:01;;;;;;;4.85;4.13;;;18.30;99.90;;;;;;5014161;28;20085;-75
2021/07/31 03:05:45;;;;;;;4.57;4.10;;;18.30;99.90;;;;;;5013705;28;20053;-76
2021/07/31 03:08:28;;;;;;;7.30;4.00;;;18.30;99.90;;;;;;5012803;28;20041;-75
2021/07/31 03:10:56;;;;;;;7.43;4.65;;;18.20;99.90;;;;;;5021836;28;20050;-76
2021/07/31 03:13:26;;;;;;;7.20;4.70;;;18.20;99.90;;;;;;5013909;28;20517;-76
2021/07/31 03:15:53;;;;;;;5.93;4.28;;;18.20;99.90;;;;;;5014448;28;20096;-75
2021/07/31 03:18:20;;;;;;;4.93;4.15;;;18.20;99.90;;;;;;5014770;28;20050;-77
2021/07/31 03:20:49;;;;;;;4.07;3.75;;;18.20;99.90;;;;;;5014330;28;20434;-77
2021/07/31 03:23:17;;;;;;;4.43;4.03;;;18.20;99.90;;;;;;5014906;28;20061;-76
2021/07/31 03:25:44;;;;;;;4.70;4.18;;;18.30;99.90;;;;;;5029254;28;20053;-75
2021/07/31 03:28:11;;;;;;;4.90;4.10;;;18.30;99.90;;;;;;5032858;28;20049;-77
2021/07/31 03:30:41;;;;;;;3.92;3.63;;;18.30;99.90;;;;;;5027347;28;20092;-77
2021/07/31 03:33:07;;;;;;;6.28;4.28;;;18.40;99.90;;;;;;5020215;28;20049;-76
2021/07/31 03:35:34;;;;;;;5.68;4.65;;;18.50;99.90;;;;;;5033073;28;20412;-76
2021/07/31 03:38:03;;;;;;;7.82;5.97;;;18.50;99.90;;;;;;5025028;28;20506;-76
2021/07/31 03:40:29;;;;;;;6.40;4.45;;;18.50;99.90;;;;;;5013550;28;20053;-77
2021/07/31 03:42:56;;;;;;;9.95;5.75;;;18.50;99.90;;;;;;5012972;28;20054;-76
2021/07/31 03:45:23;;;;;;;7.05;4.43;;;18.50;99.90;;;;;;5013535;28;20050;-77
2021/07/31 03:47:52;;;;;;;9.35;6.72;;;18.40;99.90;;;;;;5015001;28;20050;-76
2021/07/31 03:50:19;;;;;;;9.00;5.75;;;18.40;99.90;;;;;;5032677;28;20046;-77
2021/07/31 03:52:45;;;;;;;4.65;4.20;;;18.40;99.90;;;;;;5020604;28;20418;-77
2021/07/31 03:55:13;;;;;;;6.05;4.88;;;18.30;99.90;;;;;;5013075;28;20050;-76
2021/07/31 03:57:40;;;;;;;3.40;3.08;;;18.30;99.90;;;;;;5012854;28;20544;-75
2021/07/31 04:00:08;;;;;;;13.23;4.25;;;18.30;99.90;;;;;;5014251;28;20038;-77
2021/07/31 04:02:34;;;;;;;4.72;3.63;;;18.30;99.90;;;;;;5023059;28;20042;-76
2021/07/31 04:05:01;;;;;;;8.32;4.82;;;18.30;99.90;;;;;;5032298;28;20456;-76
2021/07/31 04:07:28;;;;;;;4.28;3.65;;;18.20;99.90;;;;;;5017216;28;20045;-74
2021/07/31 04:09:54;;;;;;;6.43;3.72;;;18.20;99.90;;;;;;5027500;28;20041;-75
2021/07/31 04:12:25;;;;;;;4.85;3.85;;;18.10;99.90;;;;;;5015815;28;20046;-74
2021/07/31 04:14:52;;;;;;;3.90;3.25;;;18.10;99.90;;;;;;5013022;28;20049;-77
2021/07/31 04:17:18;;;;;;;8.90;5.55;;;18.10;99.90;;;;;;5012814;28;20042;-77
2021/07/31 04:19:45;;;;;;;5.65;4.00;;;18.10;99.90;;;;;;5012186;28;20046;-78
2021/07/31 04:22:12;;;;;;;4.35;2.92;;;18.10;99.90;;;;;;5011953;28;20042;-77
2021/07/31 04:24:38;;;;;;;5.93;4.10;;;18.10;99.90;;;;;;5012424;28;20073;-76
2021/07/31 04:27:05;;;;;;;4.20;2.95;;;18.20;99.90;;;;;;5015226;28;20042;-77
2021/07/31 04:29:33;;;;;;;7.55;3.67;;;18.20;99.90;;;;;;5012278;28;20049;-75
2021/07/31 04:32:00;;;;;;;2.90;2.55;;;18.30;99.90;;;;;;5025516;28;20045;-75
2021/07/31 04:34:29;;;;;;;2.70;2.50;;;18.30;99.90;;;;;;5026701;28;20071;-77
2021/07/31 04:36:55;;;;;;;4.15;3.00;;;18.30;99.90;;;;;;5019013;28;20056;-76
2021/07/31 04:39:22;;;;;;;5.38;3.85;;;18.40;99.90;;;;;;5028434;28;20099;-76
2021/07/31 04:41:49;;;;;;;4.30;3.88;;;18.40;99.90;;;;;;5032237;28;20049;-75
2021/07/31 04:44:15;;;;;;;2.58;2.38;;;18.40;99.90;;;;;;5032221;28;20076;-77
2021/07/31 04:46:43;;;;;;;4.22;3.63;;;18.50;99.90;;;;;;5020993;28;20057;-76
2021/07/31 04:49:10;;;;;;;10.05;5.68;;;18.60;99.90;;;;;;5011626;28;20498;-77
2021/07/31 04:51:37;;;;;;;3.90;3.53;;;18.60;99.90;;;;;;5011972;28;20053;-76
2021/07/31 04:54:03;;;;;;;8.68;3.35;;;18.70;99.90;;;;;;5012416;28;20045;-76
2021/07/31 04:56:30;;;;;;;4.53;3.33;;;18.60;99.90;;;;;;5012553;28;20053;-77
2021/07/31 04:58:57;;;;;;;2.78;2.50;;;18.60;99.90;;;;;;5011958;28;20387;-76
2021/07/31 05:01:23;;;;;;;3.45;2.25;;;18.70;99.90;;;;;;5026220;28;20410;-75
2021/07/31 05:03:51;;;;;;;2.63;2.28;;;18.90;99.90;;;;;;5025250;28;20046;-75
2021/07/31 05:06:18;;;;;;;2.55;2.35;;;18.90;99.90;;;;;;5011743;28;20053;-75
2021/07/31 05:08:45;;;;;;;3.90;2.67;;;18.90;99.90;;;;;;5011736;28;20061;-74
2021/07/31 05:11:11;;;;;;;5.43;2.58;;;18.90;99.90;;;;;;5012283;28;20037;-76
2021/07/31 05:13:38;;;;;;;2.75;2.55;;;19.00;99.90;;;;;;5027357;28;20095;-76
2021/07/31 05:16:06;;;;;;;3.22;2.63;;;19.10;99.90;;;;;;5031730;28;20111;-77
2021/07/31 05:18:32;;;;;;;4.00;2.70;;;19.10;99.90;;;;;;5028587;28;20049;-77
2021/07/31 05:21:00;;;;;;;4.60;2.60;;;19.10;99.90;;;;;;5031569;28;20052;-76
2021/07/31 05:23:27;;;;;;;2.30;2.10;;;19.20;99.90;;;;;;5032105;28;20053;-76
2021/07/31 05:25:53;;;;;;;3.25;2.08;;;19.20;99.90;;;;;;5021393;28;20050;-78
2021/07/31 05:28:20;;;;;;;3.10;2.30;;;19.20;99.90;;;;;;5012025;28;20096;-75
2021/07/31 05:30:47;;;;;;;2.50;2.30;;;19.30;99.90;;;;;;5011784;28;20092;-76
2021/07/31 05:33:14;;;;;;;2.35;2.15;;;19.40;99.90;;;;;;5012566;28;20050;-77
2021/07/31 05:35:40;;;;;;;3.25;2.70;;;19.40;99.90;;;;;;5028843;28;20046;-76
2021/07/31 05:38:08;;;;;;;1.80;1.70;;;19.50;99.90;;;;;;5026461;28;20048;-76
2021/07/31 05:40:35;;;;;;;5.60;3.22;;;19.50;99.90;;;;;;5035682;28;20046;-76
2021/07/31 05:43:01;;;;;;;3.75;2.20;;;19.50;99.90;;;;;;5027991;28;20042;-77
2021/07/31 05:45:28;;;;;;;4.00;2.63;;;19.60;99.90;;;;;;5015501;28;20095;-77
2021/07/31 05:47:57;;;;;;;1.85;1.75;;;19.70;99.90;;;;;;5027548;28;20560;-76
2021/07/31 05:50:24;;;;;;;10.65;6.30;;;19.90;99.90;;;;;;5030552;28;20054;-77
2021/07/31 05:52:51;;;;;;;3.85;1.77;;;19.90;99.90;;;;;;5033344;28;20041;-77
2021/07/31 05:55:19;;;;;;;1.70;1.25;;;20.00;99.90;;;;;;5035251;28;20042;-77
2021/07/31 05:57:46;;;;;;;3.13;1.90;;;20.00;99.90;;;;;;5020623;28;20049;-77
2021/07/31 06:00:14;;;;;;;5.55;1.75;;;20.10;99.90;;;;;;5027369;28;20111;-76
2021/07/31 06:02:41;;;;;;;4.18;3.53;;;20.20;99.90;;;;;;5033014;28;20445;-77
2021/07/31 06:05:10;;;;;;;3.53;2.10;;;20.20;99.90;;;;;;5035329;28;20049;-77
2021/07/31 06:07:37;;;;;;;3.47;2.72;;;20.40;99.90;;;;;;5030246;28;20054;-76
2021/07/31 06:10:04;;;;;;;3.33;2.25;;;20.50;99.90;;;;;;5034402;28;20499;-77
2021/07/31 06:12:35;;;;;;;7.95;5.55;;;20.70;99.90;;;;;;5020842;28;20046;-76
2021/07/31 06:15:02;;;;;;;5.57;2.37;;;21.00;99.90;;;;;;5015573;28;20042;-76
2021/07/31 06:17:29;;;;;;;2.47;1.50;;;21.30;99.90;;;;;;5015215;28;20096;-76
2021/07/31 06:19:55;;;;;;;6.93;4.85;;;21.50;99.90;;;;;;5016530;28;20112;-76
2021/07/31 06:22:22;;;;;;;3.42;2.47;;;21.70;99.90;;;;;;5025603;28;20564;-76
2021/07/31 06:24:48;;;;;;;1.42;1.23;;;21.70;99.90;;;;;;5034756;28;20567;-76
2021/07/31 06:27:15;;;;;;;3.45;2.50;;;21.80;99.90;;;;;;5033305;28;20104;-75
2021/07/31 06:29:43;;;;;;;7.25;4.30;;;22.10;99.90;;;;;;5026922;28;20049;-75
2021/07/31 06:32:10;;;;;;;4.00;1.95;;;22.40;99.90;;;;;;5014926;28;20438;-75
2021/07/31 06:34:37;;;;;;;2.58;2.20;;;22.90;99.90;;;;;;5014871;28;20046;-76
2021/07/31 06:37:04;;;;;;;4.85;2.78;;;23.10;98.80;;;;;;5020407;28;20553;-78
2021/07/31 06:39:30;;;;;;;3.45;1.98;;;23.20;97.50;;;;;;5019247;28;20379;-74
2021/07/31 06:41:57;;;;;;;2.33;2.13;;;23.50;96.30;;;;;;5019423;28;20089;-76
2021/07/31 06:44:23;;;;;;;5.75;2.85;;;23.60;94.30;;;;;;5031179;28;20049;-76
2021/07/31 06:46:51;;;;;;;5.22;1.67;;;23.60;93.80;;;;;;5029254;28;20045;-75
2021/07/31 06:49:18;;;;;;;3.42;1.13;;;23.40;92.40;;;;;;5033579;28;20043;-76
2021/07/31 06:51:45;;;;;;;2.60;1.27;;;22.70;91.90;;;;;;5027629;28;20450;-77
2021/07/31 06:54:11;;;;;;;2.40;1.55;;;22.70;92.50;;;;;;5014755;28;20050;-75
2021/07/31 06:56:38;;;;;;;3.03;1.67;;;23.10;92.30;;;;;;5018103;28;20069;-75
2021/07/31 06:59:04;;;;;;;1.70;1.15;;;23.40;91.20;;;;;;5013324;28;20041;-76
2021/07/31 07:01:31;;;;;;;3.15;2.60;;;23.60;90.00;;;;;;5013763;28;20486;-76
2021/07/31 07:03:59;;;;;;;2.05;1.50;;;23.90;90.80;;;;;;5014007;28;20049;-76
2021/07/31 07:06:26;;;;;;;5.57;3.80;;;24.00;88.10;;;;;;5014024;28;20473;-77
2021/07/31 07:08:52;;;;;;;2.50;1.65;;;24.60;88.30;;;;;;5013934;28;20379;-76
2021/07/31 07:11:19;;;;;;;3.25;1.85;;;24.60;86.40;;;;;;5017222;28;20104;-76
2021/07/31 07:13:46;;;;;;;0.73;0.73;;;24.80;85.40;;;;;;5016283;28;20524;-76
2021/07/31 07:16:13;;;;;;;0.80;0.80;;;24.50;82.40;;;;;;5015795;28;20556;-75
2021/07/31 07:18:39;;;;;;;1.95;1.02;;;24.00;82.10;;;;;;5030423;28;20115;-76
2021/07/31 07:21:09;;;;;;;2.15;0.90;;;24.00;81.90;;;;;;5014147;28;20560;-76
2021/07/31 07:23:36;;;;;;;1.50;0.90;;;24.20;82.90;;;;;;5026512;28;20049;-76
2021/07/31 07:26:03;;;;;;;1.65;0.80;;;24.10;81.20;;;;;;5032503;28;20115;-76
2021/07/31 07:28:30;;;;;;;0.80;0.80;;;24.10;81.70;;;;;;5013095;28;20049;-76
2021/07/31 07:30:58;;;;;;;2.95;1.00;;;24.30;81.50;;;;;;5013612;28;20041;-77
2021/07/31 07:33:25;;;;;;;5.30;1.30;;;24.70;80.80;;;;;;5013445;28;20046;-76
2021/07/31 07:35:52;;;;;;;2.88;1.63;;;24.90;79.40;;;;;;5027514;28;20075;-76
2021/07/31 07:38:20;;;;;;;1.80;1.05;;;24.80;77.90;;;;;;5032536;28;20041;-76
2021/07/31 07:40:46;;;;;;;2.60;1.00;;;25.10;78.20;;;;;;5020072;28;20046;-75
2021/07/31 07:43:13;;;;;;;1.98;1.17;;;25.00;76.20;;;;;;5013294;28;20096;-76
2021/07/31 07:45:40;;;;;;;1.35;0.80;;;24.70;77.40;;;;;;5013154;28;20042;-76
2021/07/31 07:48:06;;;;;;;2.60;0.90;;;24.60;75.70;;;;;;5013031;28;20108;-76
2021/07/31 07:50:34;;;;;;;1.58;1.05;;;24.80;76.60;;;;;;5019161;28;20088;-76
2021/07/31 07:53:01;;;;;;;2.33;1.02;;;25.10;77.20;;;;;;5030329;28;20041;-76
2021/07/31 07:55:28;;;;;;;1.10;1.00;;;25.00;77.00;;;;;;5032671;28;20049;-76
2021/07/31 07:57:55;;;;;;;1.20;0.90;;;24.40;75.70;;;;;;5031881;28;20080;-76
2021/07/31 08:00:22;;;;;;;1.30;1.20;;;24.20;76.10;;;;;;5031736;28;20050;-74
2021/07/31 08:02:48;;;;;;;1.88;0.98;;;24.00;77.90;;;;;;5027641;28;20050;-75
2021/07/31 08:05:15;;;;;;;1.52;1.17;;;24.10;78.30;;;;;;5013940;28;20104;-75
2021/07/31 08:07:43;;;;;;;2.03;1.48;;;24.70;78.70;;;;;;5013740;28;20053;-75
2021/07/31 08:10:11;;;;;;;2.13;0.80;;;25.20;75.70;;;;;;5013449;28;20129;-76
2021/07/31 08:12:39;;;;;;;3.30;1.73;;;25.20;73.70;;;;;;5032435;28;20460;-76
2021/07/31 08:15:07;;;;;;;1.88;0.95;;;25.10;73.40;;;;;;5033554;28;20041;-77
2021/07/31 08:17:33;;;;;;;2.78;1.10;;;25.70;71.40;;;;;;5027603;28;20048;-76
2021/07/31 08:20:00;;;;;;;1.65;0.98;;;25.70;72.00;;;;;;5020924;28;20050;-75
2021/07/31 08:22:27;;;;;;;0.75;0.73;;;25.50;71.90;;;;;;5012792;28;20042;-75
2021/07/31 08:24:54;;;;;;;0.90;0.70;;;24.90;71.00;;;;;;5012807;28;20053;-76
2021/07/31 08:27:21;;;;;;;1.52;0.90;;;24.90;71.10;;;;;;5012666;28;20104;-76
2021/07/31 08:29:50;;;;;;;0.68;0.68;;;25.10;70.90;;;;;;5012776;28;20141;-76
2021/07/31 08:32:16;;;;;;;3.60;0.80;;;25.10;68.00;;;;;;5022221;28;20118;-77
2021/07/31 08:34:43;;;;;;;1.27;0.60;;;24.90;67.00;;;;;;5023079;28;20046;-76
2021/07/31 08:37:11;;;;;;;1.92;1.10;;;25.40;67.20;;;;;;5022221;28;20095;-76
2021/07/31 08:39:39;;;;;;;2.40;1.80;;;25.50;66.60;;;;;;5014919;28;20514;-77
2021/07/31 08:42:06;;;;;;;0.60;0.60;;;25.80;66.00;;;;;;5022112;28;20123;-76
2021/07/31 08:44:34;;;;;;;1.05;0.70;;;25.80;66.00;;;;;;5034907;28;20041;-76
2021/07/31 08:47:04;;;;;;;1.75;0.82;;;25.50;64.80;;;;;;5036311;28;20049;-76
2021/07/31 08:49:32;;;;;;;0.80;0.80;;;24.90;65.10;;;;;;5032933;28;20060;-72
2021/07/31 08:52:00;;;;;;;2.70;0.90;;;25.00;66.10;;;;;;5020143;28;20038;-74
2021/07/31 08:54:26;;;;;;;1.50;0.77;;;25.40;65.10;;;;;;5030779;28;20046;-73
2021/07/31 08:56:53;;;;;;;1.20;1.10;;;25.80;64.80;;;;;;5026525;28;20045;-74
2021/07/31 08:59:25;;;;;;;2.13;0.82;;;26.40;63.70;;;;;;5011953;28;20450;-72
2021/07/31 09:01:51;;;;;;;4.80;1.00;;;26.20;63.90;;;;;;5011865;28;20045;-73
2021/07/31 09:04:20;;;;;;;1.65;0.85;;;27.10;64.60;;;;;;5012192;28;20046;-72
2021/07/31 09:06:46;;;;;;;1.60;1.05;;;27.00;63.80;;;;;;5011846;28;20061;-71
2021/07/31 09:09:13;;;;;;;1.42;0.90;;;26.80;64.40;;;;;;5011763;28;20049;-75
2021/07/31 09:11:56;;;;;;;0.90;0.85;;;26.10;63.80;;;;;;5021584;28;20056;-74
2021/07/31 09:14:22;;;;;;;4.15;1.15;;;26.20;63.70;;;;;;5020741;28;20046;-72
2021/07/31 09:16:49;;;;;;;1.60;0.95;;;27.10;63.80;;;;;;5024405;28;20096;-74
2021/07/31 09:19:19;;;;;;;0.80;0.80;;;27.20;61.00;;;;;;5030652;28;20041;-74
2021/07/31 09:21:46;;;;;;;0.73;0.73;;;26.80;62.50;;;;;;5031875;28;20374;-73
2021/07/31 09:24:18;;;;;;;0.80;0.75;;;27.20;60.80;;;;;;5031597;28;20421;-73
2021/07/31 09:26:48;;;;;;;1.55;0.70;;;27.50;59.80;;;;;;5024160;28;20552;-72
2021/07/31 09:29:16;;;;;;;2.60;0.80;;;27.30;60.30;;;;;;5023197;28;20049;-71
2021/07/31 09:31:50;;;;;;;1.70;1.15;;;27.10;60.60;;;;;;5014744;28;20046;-75
2021/07/31 09:34:27;;;;;;;0.65;0.65;;;27.90;62.70;;;;;;5011931;28;20132;-75
2021/07/31 09:37:09;;;;;;;2.67;1.20;;;27.70;59.70;;;;;;5018407;28;20046;-74
2021/07/31 09:39:55;;;;;;;9.15;1.13;;;27.10;59.20;;;;;;5031296;28;20046;-74
2021/07/31 09:42:26;;;;;;;0.90;0.60;;;26.50;60.50;;;;;;5017183;28;20053;-74
2021/07/31 09:44:52;;;;;;;1.35;0.68;;;26.30;61.00;;;;;;5012051;28;20406;-73
2021/07/31 09:47:19;;;;;;;1.40;1.30;;;26.10;59.70;;;;;;5011478;28;20050;-73
2021/07/31 09:49:47;;;;;;;1.30;0.80;;;26.10;61.70;;;;;;5010782;28;20049;-73
2021/07/31 09:52:18;;;;;;;2.83;0.88;;;26.10;62.50;;;;;;5024796;28;20045;-74
2021/07/31 09:54:45;;;;;;;;;;;25.80;60.90;;;;;;5031669;28;20076;-73
2021/07/31 09:57:12;;;;;;;1.45;0.80;;;26.50;61.50;;;;;;5031272;28;19975;-73
2021/07/31 09:59:44;;;;;;;1.23;0.80;;;26.70;58.30;;;;;;5030609;28;20531;-74
2021/07/31 10:02:15;;;;;;;0.77;0.60;;;26.00;59.70;;;;;;5031331;28;20502;-75
2021/07/31 10:04:42;;;;;;;1.88;0.85;;;25.70;60.80;;;;;;5031127;28;20049;-75
2021/07/31 10:07:10;;;;;;;3.22;0.60;;;25.20;62.50;;;;;;5031455;28;20122;-75
2021/07/31 10:09:40;;;;;;;1.77;1.27;;;25.40;62.80;;;;;;5029110;28;20518;-76
2021/07/31 10:12:10;;;;;;;0.77;0.60;;;26.60;63.70;;;;;;5012353;28;20133;-73
2021/07/31 10:14:39;;;;;;;1.67;1.02;;;26.70;58.90;;;;;;5010517;28;20050;-73
2021/07/31 10:17:06;;;;;;;0.52;0.52;;;26.40;60.10;;;;;;5010738;28;20120;-73
2021/07/31 10:19:39;;;;;;;3.17;1.10;;;26.00;60.30;;;;;;5019273;28;20092;-74
2021/07/31 10:22:06;;;;;;;1.00;0.90;;;25.90;60.00;;;;;;5033875;28;20052;-75
2021/07/31 10:25:07;;;;;;;2.50;0.98;;;26.20;60.70;;;;;;5033954;28;20046;-74
2021/07/31 10:27:34;;;;;;;1.80;0.80;;;26.10;60.00;;;;;;5033930;28;20512;-73
2021/07/31 10:30:02;;;;;;;1.83;0.85;;;25.40;60.10;;;;;;5033126;28;20045;-75
2021/07/31 10:32:38;;;;;;;1.85;0.60;;;25.80;59.30;;;;;;5034046;28;20398;-73
2021/07/31 10:35:06;;;;;;;0.70;0.70;;;26.60;59.70;;;;;;5019089;28;20061;-72
2021/07/31 10:37:44;;;;;;;2.67;0.80;;;27.10;57.80;;;;;;5014093;28;20506;-74
2021/07/31 10:40:33;;;;;;;0.75;0.75;;;26.40;58.90;;;;;;5014097;28;20053;-74
2021/07/31 10:43:03;;;;;;;2.92;1.00;;;26.20;60.70;;;;;;5014366;28;20518;-74
2021/07/31 10:45:31;;;;;;;0.85;0.73;;;26.40;60.20;;;;;;5013760;28;20050;-74
2021/07/31 10:47:59;;;;;;;1.65;0.70;;;26.40;60.70;;;;;;5014893;28;20046;-75
2021/07/31 10:50:40;;;;;;;4.28;0.55;;;28.10;58.40;;;;;;5033027;28;20093;-76
2021/07/31 10:53:10;;;;;;;0.75;0.73;;;28.40;55.80;;;;;;5033391;28;20057;-74
2021/07/31 10:56:04;;;;;;;1.95;0.75;;;28.00;57.10;;;;;;5033239;28;20069;-73
2021/07/31 10:58:32;;;;;;;1.13;0.80;;;27.50;58.40;;;;;;5032694;28;20390;-73
2021/07/31 11:01:22;;;;;;;0.68;0.68;;;26.10;59.60;;;;;;5033328;28;20049;-74
2021/07/31 11:03:49;;;;;;;0.47;0.40;;;25.50;60.90;;;;;;5014096;28;20498;-73
2021/07/31 11:06:16;;;;;;;3.13;0.93;;;26.10;60.00;;;;;;5013977;28;20049;-73
2021/07/31 11:09:13;;;;;;;1.38;0.55;;;26.20;60.40;;;;;;5013418;28;20395;-73
2021/07/31 11:11:43;;;;;;;1.45;1.35;;;26.70;59.30;;;;;;5013869;28;20530;-74
2021/07/31 11:14:10;;;;;;;1.17;0.57;;;27.50;57.90;;;;;;5013824;28;20045;-74
2021/07/31 11:16:37;;;;;;;1.17;0.60;;;28.70;56.50;;;;;;5014789;28;20049;-74
2021/07/31 11:19:04;;;;;;;0.88;0.73;;;28.20;55.00;;;;;;5013014;28;20046;-76
2021/07/31 11:21:33;;;;;;;1.73;1.15;;;28.30;54.80;;;;;;5013382;28;20068;-74
2021/07/31 11:24:01;;;;;;;0.60;0.60;;;28.20;55.20;;;;;;5013845;28;20116;-74
2021/07/31 11:26:34;;;;;;;2.53;1.13;;;28.30;53.80;;;;;;5013603;28;20099;-73
2021/07/31 11:29:03;;;;;;;1.08;0.50;;;27.40;56.10;;;;;;5012810;28;20046;-73
2021/07/31 11:31:30;;;;;;;0.40;0.40;;;27.20;56.40;;;;;;5013554;28;20046;-73
2021/07/31 11:33:58;;;;;;;1.50;0.77;;;26.10;57.50;;;;;;5013422;28;20046;-72
2021/07/31 11:36:24;;;;;;;1.65;0.57;;;25.40;59.80;;;;;;5013538;28;20084;-73
2021/07/31 11:38:52;;;;;;;6.15;0.70;;;25.50;61.60;;;;;;5012894;28;20120;-73
2021/07/31 11:41:19;;;;;;;1.40;0.75;;;25.50;60.40;;;;;;5013291;28;20053;-75
2021/07/31 11:43:49;;;;;;;2.03;0.50;;;25.80;61.80;;;;;;5013145;28;20050;-74
2021/07/31 11:46:42;;;;;;;0.50;0.45;;;25.90;59.80;;;;;;5013027;28;20112;-73
2021/07/31 11:49:10;;;;;;;1.42;0.63;;;26.20;61.30;;;;;;4998095;28;20050;-73
2021/07/31 11:51:45;;;;;;;0.60;0.60;;;27.10;60.70;;;;;;5032962;28;20417;-74
2021/07/31 11:54:13;;;;;;;0.85;0.85;;;27.20;57.70;;;;;;5032867;28;20053;-73
2021/07/31 11:56:40;;;;;;;4.10;0.70;;;27.10;57.90;;;;;;5032902;28;20053;-74
2021/07/31 11:59:08;;;;;;;0.60;0.60;;;27.20;58.30;;;;;;5019787;28;20041;-74
2021/07/31 12:01:36;;;;;;;0.40;0.40;;;26.30;57.70;;;;;;5012945;28;20562;-72
2021/07/31 12:04:04;;;;;;;1.08;0.47;;;25.40;59.50;;;;;;5013045;28;20096;-72
2021/07/31 12:06:37;;;;;;;2.80;0.85;;;25.70;59.30;;;;;;5013071;28;20461;-74
2021/07/31 12:09:06;;;;;;;1.20;0.60;;;26.50;61.80;;;;;;5012110;28;20074;-73
2021/07/31 12:11:40;;;;;;;2.35;1.25;;;26.30;57.80;;;;;;5012852;28;20045;-73
2021/07/31 12:14:33;;;;;;;0.70;0.70;;;26.20;59.50;;;;;;5012984;28;20046;-73
2021/07/31 12:17:23;;;;;;;2.20;0.60;;;25.90;59.90;;;;;;5028924;28;20042;-74
2021/07/31 12:19:52;;;;;;;0.40;0.40;;;26.20;58.90;;;;;;5032049;28;20747;-74
2021/07/31 12:22:21;;;;;;;0.75;0.38;;;26.90;58.30;;;;;;5032694;28;20045;-73
2021/07/31 12:25:20;;;;;;;2.17;0.52;;;27.40;58.30;;;;;;5032311;28;20041;-73
2021/07/31 12:28:06;;;;;;;1.88;0.77;;;26.60;57.40;;;;;;5025800;28;20054;-73
2021/07/31 12:30:40;;;;;;;3.10;1.10;;;27.00;57.80;;;;;;5012095;28;20419;-72
2021/07/31 12:33:19;;;;;;;1.58;0.50;;;28.10;56.20;;;;;;5012519;28;20111;-73
2021/07/31 12:35:48;;;;;;;1.45;0.90;;;27.60;55.00;;;;;;5012997;28;20053;-73
2021/07/31 12:38:17;;;;;;;2.25;0.60;;;28.00;55.70;;;;;;5012216;28;20068;-75
2021/07/31 12:40:45;;;;;;;1.67;0.80;;;28.30;54.90;;;;;;5012216;28;20334;-74
2021/07/31 12:43:13;;;;;;;1.95;0.60;;;26.90;55.30;;;;;;5016239;28;20061;-73
2021/07/31 12:45:41;;;;;;;0.60;0.60;;;26.40;56.90;;;;;;5031703;28;20053;-74
2021/07/31 12:48:08;;;;;;;1.88;0.77;;;26.40;56.90;;;;;;5031864;28;20076;-74
2021/07/31 12:50:34;;;;;;;0.50;0.50;;;25.80;58.30;;;;;;5031780;28;20045;-74
2021/07/31 12:53:02;;;;;;;0.50;0.50;;;25.30;59.00;;;;;;5031632;28;20050;-74